Time;durP1;ratioP1;P1;durP2;ratioP2;P2;SDS_P1;SDS_P2;PMS_P1;PMS_P2;Temp;Humidity;BMP_temperature;BMP_pressure;BME280_temperature;BME280_humidity;BME280_pressure;Samples;Min_cycle;Max_cycle;Signal;HPM_P1;HPM_P2
2021/10/31 00:00:42;;;;;;;;;;;;;;;9.29;84.05;100490.66;5033856;28;845;-60
2021/10/31 00:03:09;;;;;;;;;;;;;;;9.24;83.68;100499.25;5033731;28;1882;-60
2021/10/31 00:05:34;;;;;;;;;;;;;;;9.12;84.50;100501.09;5033678;28;819;-59
2021/10/31 00:08:01;;;;;;;;;;;;;;;9.04;84.78;100496.66;5033711;28;803;-60
2021/10/31 00:10:28;;;;;;;;;;;;;;;8.99;85.13;100497.00;5033726;28;892;-60
2021/10/31 00:12:54;;;;;;;;;;;;;;;8.96;85.03;100490.28;5033608;28;854;-60
2021/10/31 00:15:20;;;;;;;;;;;;;;;8.93;85.27;100493.78;5033691;28;822;-60
2021/10/31 00:17:47;;;;;;;;;;;;;;;8.93;85.28;100493.00;5033467;28;1005;-60
2021/10/31 00:20:14;;;;;;;;;;;;;;;8.88;85.43;100487.81;5033358;28;1479;-60
2021/10/31 00:22:44;;;;;;;;;;;;;;;8.86;85.65;100481.88;5033254;28;1914;-60
2021/10/31 00:25:11;;;;;;;;;;;;;;;8.89;85.51;100483.88;5033401;28;881;-60
2021/10/31 00:27:38;;;;;;;;;;;;;;;8.89;85.63;100481.13;5033447;28;917;-60
2021/10/31 00:30:05;;;;;;;;;;;;;;;8.82;85.51;100468.03;5033210;28;815;-60
2021/10/31 00:32:32;;;;;;;;;;;;;;;8.82;85.44;100470.78;5033175;28;909;-60
2021/10/31 00:34:59;;;;;;;;;;;;;;;8.82;85.03;100462.53;5033209;28;815;-60
2021/10/31 00:37:25;;;;;;;;;;;;;;;8.78;85.11;100467.19;5033088;28;819;-60
2021/10/31 00:39:52;;;;;;;;;;;;;;;8.71;85.41;100458.84;5033079;28;831;-60
2021/10/31 00:42:18;;;;;;;;;;;;;;;8.61;85.34;100456.75;5033078;28;1882;-60
2021/10/31 00:44:45;;;;;;;;;;;;;;;8.50;85.97;100462.88;5032505;28;889;-60
2021/10/31 00:47:11;;;;;;;;;;;;;;;8.45;86.46;100465.97;5033118;28;961;-60
2021/10/31 00:49:38;;;;;;;;;;;;;;;8.45;86.70;100463.22;5032910;28;827;-60
2021/10/31 00:52:05;;;;;;;;;;;;;;;8.48;86.22;100464.44;5032873;28;921;-60
2021/10/31 00:54:33;;;;;;;;;;;;;;;8.46;86.42;100458.50;5032721;28;1012;-60
2021/10/31 00:57:01;;;;;;;;;;;;;;;8.41;86.27;100458.81;5032789;28;818;-60
2021/10/31 00:59:27;;;;;;;;;;;;;;;8.35;86.29;100450.84;5032807;28;958;-60
2021/10/31 01:01:54;;;;;;;;;;;;;;;8.29;86.86;100441.31;5014819;28;2378;-60
2021/10/31 01:04:23;;;;;;;;;;;;;;;8.31;87.29;100438.97;5032596;28;835;-60
2021/10/31 01:07:03;;;;;;;;;;;;;;;8.35;87.47;100450.06;5032590;28;810;-60
2021/10/31 01:09:37;;;;;;;;;;;;;;;8.42;87.09;100435.63;5032522;28;815;-60
2021/10/31 01:12:06;;;;;;;;;;;;;;;8.53;86.46;100431.81;5032727;28;890;-60
2021/10/31 01:14:42;;;;;;;;;;;;;;;8.64;86.25;100434.75;5032449;28;893;-60
2021/10/31 01:17:21;;;;;;;;;;;;;;;8.81;86.12;100436.13;5032369;28;887;-60
2021/10/31 01:19:50;;;;;;;;;;;;;;;9.02;85.01;100435.59;5032096;28;1126;-60
2021/10/31 01:22:30;;;;;;;;;;;;;;;9.21;84.39;100437.38;5032201;28;1907;-60
2021/10/31 01:25:22;;;;;;;;;;;;;;;9.40;83.48;100430.88;5032201;28;862;-60
2021/10/31 01:27:51;;;;;;;;;;;;;;;9.55;82.75;100429.81;5032099;28;819;-60
2021/10/31 01:30:30;;;;;;;;;;;;;;;9.71;82.35;100435.13;5032022;28;906;-60
2021/10/31 01:33:02;;;;;;;;;;;;;;;9.76;81.69;100433.97;5014397;28;1209;-60
2021/10/31 01:35:29;;;;;;;;;;;;;;;9.81;81.69;100439.13;5032080;28;862;-60
2021/10/31 01:38:02;;;;;;;;;;;;;;;9.86;81.34;100426.94;5031948;28;834;-60
2021/10/31 01:40:29;;;;;;;;;;;;;;;9.89;81.14;100429.72;5031974;28;1007;-60
2021/10/31 01:42:55;;;;;;;;;;;;;;;9.89;81.31;100421.44;5031932;28;1894;-60
2021/10/31 01:45:40;;;;;;;;;;;;;;;9.88;81.25;100427.34;5031929;28;985;-60
2021/10/31 01:48:06;;;;;;;;;;;;;;;9.86;81.46;100421.41;5031797;28;842;-60
2021/10/31 01:50:33;;;;;;;;;;;;;;;9.85;81.66;100428.91;5032138;28;794;-60
2021/10/31 01:53:09;;;;;;;;;;;;;;;9.69;82.53;100420.91;5031777;28;896;-60
2021/10/31 01:55:38;;;;;;;;;;;;;;;9.52;83.63;100433.34;5031890;28;775;-60
2021/10/31 01:58:05;;;;;;;;;;;;;;;9.46;84.31;100428.56;5031544;28;823;-60
2021/10/31 02:00:32;;;;;;;;;;;;;;;9.45;84.36;100430.50;5014135;28;1173;-60
2021/10/31 02:03:02;;;;;;;;;;;;;;;9.49;84.50;100436.06;5031676;28;1886;-60
2021/10/31 02:05:32;;;;;;;;;;;;;;;9.56;84.45;100425.13;5031547;28;878;-60
2021/10/31 02:08:02;;;;;;;;;;;;;;;9.59;84.54;100433.41;5031585;28;877;-60
2021/10/31 02:10:29;;;;;;;;;;;;;;;9.60;84.57;100440.53;5031603;28;881;-60
2021/10/31 02:12:56;;;;;;;;;;;;;;;9.63;84.56;100433.47;5031510;28;873;-60
2021/10/31 02:15:23;;;;;;;;;;;;;;;9.61;84.55;100430.28;5031595;28;830;-60
2021/10/31 02:17:53;;;;;;;;;;;;;;;9.65;84.33;100427.56;5031641;28;915;-60
2021/10/31 02:20:20;;;;;;;;;;;;;;;9.70;84.33;100444.56;5010285;28;1437;-60
2021/10/31 02:22:54;;;;;;;;;;;;;;;9.71;84.05;100437.09;5011698;28;1975;-60
2021/10/31 02:25:21;;;;;;;;;;;;;;;9.64;84.50;100448.03;5012286;28;838;-60
2021/10/31 02:27:47;;;;;;;;;;;;;;;9.47;85.28;100441.97;5011653;28;862;-60
2021/10/31 02:30:14;;;;;;;;;;;;;;;9.33;86.33;100428.06;5011736;28;853;-60
2021/10/31 02:32:40;;;;;;;;;;;;;;;9.22;86.85;100427.13;5011635;28;885;-60
2021/10/31 02:35:09;;;;;;;;;;;;;;;9.14;87.38;100420.75;5011691;28;882;-60
2021/10/31 02:37:39;;;;;;;;;;;;;;;9.13;87.42;100422.72;5011569;28;846;-60
2021/10/31 02:40:06;;;;;;;;;;;;;;;9.15;87.44;100422.31;5011704;28;842;-60
2021/10/31 02:42:34;;;;;;;;;;;;;;;9.16;87.10;100421.19;5011559;28;1985;-60
2021/10/31 02:45:00;;;;;;;;;;;;;;;9.20;86.95;100417.28;5011524;28;802;-60
2021/10/31 02:47:27;;;;;;;;;;;;;;;9.20;86.92;100409.00;5011619;28;795;-60
2021/10/31 02:49:55;;;;;;;;;;;;;;;9.23;86.66;100401.94;5011620;28;889;-60
2021/10/31 02:52:26;;;;;;;;;;;;;;;9.26;86.39;100408.66;5011488;28;795;-60
2021/10/31 02:55:00;;;;;;;;;;;;;;;9.30;85.99;100409.47;5011520;28;889;-60
2021/10/31 02:57:40;;;;;;;;;;;;;;;9.30;85.55;100409.47;5011407;28;842;-60
2021/10/31 03:00:07;;;;;;;;;;;;;;;9.31;85.79;100398.06;5011389;28;925;-60
2021/10/31 03:02:32;;;;;;;;;;;;;;;9.32;85.92;100396.88;5011430;28;1889;-60
2021/10/31 03:05:00;;;;;;;;;;;;;;;9.37;85.77;100406.81;5011338;28;811;-60
2021/10/31 03:07:27;;;;;;;;;;;;;;;9.41;85.46;100410.41;5012172;28;882;-60
2021/10/31 03:09:54;;;;;;;;;;;;;;;9.48;85.19;100415.19;5015089;28;862;-60
2021/10/31 03:12:20;;;;;;;;;;;;;;;9.55;85.17;100409.72;5014820;28;899;-60
2021/10/31 03:14:47;;;;;;;;;;;;;;;9.62;84.53;100407.00;5015033;28;807;-60
2021/10/31 03:17:14;;;;;;;;;;;;;;;9.70;84.21;100405.91;5014866;28;926;-60
2021/10/31 03:19:42;;;;;;;;;;;;;;;9.72;84.16;100402.78;5029035;28;1416;-60
2021/10/31 03:22:09;;;;;;;;;;;;;;;9.71;84.00;100392.91;5034503;28;1981;-60
2021/10/31 03:24:35;;;;;;;;;;;;;;;9.72;84.13;100397.25;5016674;28;1225;-60
2021/10/31 03:27:02;;;;;;;;;;;;;;;9.75;83.63;100391.78;5034367;28;882;-60
2021/10/31 03:29:28;;;;;;;;;;;;;;;9.78;83.15;100390.19;5034378;28;881;-60
2021/10/31 03:31:55;;;;;;;;;;;;;;;9.77;83.44;100391.38;5034404;28;890;-60
2021/10/31 03:34:21;;;;;;;;;;;;;;;9.75;83.74;100390.94;5034262;28;819;-60
2021/10/31 03:36:48;;;;;;;;;;;;;;;9.72;83.62;100391.72;5034291;28;866;-60
2021/10/31 03:39:16;;;;;;;;;;;;;;;9.70;83.73;100383.81;5034236;28;898;-60
2021/10/31 03:41:45;;;;;;;;;;;;;;;9.70;83.66;100380.28;5034099;28;1947;-60
2021/10/31 03:44:13;;;;;;;;;;;;;;;9.71;83.60;100382.66;5034254;28;889;-60
2021/10/31 03:46:40;;;;;;;;;;;;;;;9.77;83.45;100381.13;5033981;28;935;-60
2021/10/31 03:49:07;;;;;;;;;;;;;;;9.81;82.98;100378.38;5034179;28;886;-60
2021/10/31 03:51:34;;;;;;;;;;;;;;;9.78;83.13;100379.94;5034188;28;858;-60
2021/10/31 03:54:02;;;;;;;;;;;;;;;9.78;83.12;100379.16;5034073;28;850;-60
2021/10/31 03:56:28;;;;;;;;;;;;;;;9.78;83.48;100393.75;5033767;28;790;-60
2021/10/31 03:58:54;;;;;;;;;;;;;;;9.81;83.20;100401.28;5033991;28;881;-60
2021/10/31 04:01:21;;;;;;;;;;;;;;;9.81;83.10;100401.28;5033782;28;847;-60
2021/10/31 04:03:48;;;;;;;;;;;;;;;9.81;83.35;100408.75;5033784;28;1878;-60
2021/10/31 04:06:15;;;;;;;;;;;;;;;9.79;83.27;100392.59;5033718;28;906;-60
2021/10/31 04:08:42;;;;;;;;;;;;;;;9.86;83.20;100399.31;5033966;28;803;-60
2021/10/31 04:11:08;;;;;;;;;;;;;;;9.83;83.58;100403.63;5033560;28;882;-60
2021/10/31 04:13:35;;;;;;;;;;;;;;;9.81;83.33;100401.28;5033576;28;951;-60
2021/10/31 04:16:02;;;;;;;;;;;;;;;9.76;83.50;100398.06;5033562;28;855;-60
2021/10/31 04:18:29;;;;;;;;;;;;;;;9.71;83.91;100399.22;5033032;28;1196;-60
2021/10/31 04:20:56;;;;;;;;;;;;;;;9.67;84.33;100401.16;5032961;28;851;-60
2021/10/31 04:23:23;;;;;;;;;;;;;;;9.61;84.42;100403.47;5033375;28;1970;-60
2021/10/31 04:25:49;;;;;;;;;;;;;;;9.55;84.82;100409.72;5033301;28;842;-60
2021/10/31 04:28:16;;;;;;;;;;;;;;;9.46;85.74;100407.28;5033373;28;930;-60
2021/10/31 04:30:43;;;;;;;;;;;;;;;9.39;85.94;100409.97;5033190;28;902;-60
2021/10/31 04:33:09;;;;;;;;;;;;;;;9.33;86.49;100417.00;5033549;28;811;-60
2021/10/31 04:35:36;;;;;;;;;;;;;;;9.29;87.24;100418.94;5033196;28;886;-60
2021/10/31 04:38:16;;;;;;;;;;;;;;;9.27;87.25;100411.03;5033161;28;822;-60
2021/10/31 04:40:42;;;;;;;;;;;;;;;9.29;87.24;100416.19;5033088;28;819;-60
2021/10/31 04:43:12;;;;;;;;;;;;;;;9.26;87.81;100408.66;5032945;28;1882;-60
2021/10/31 04:45:40;;;;;;;;;;;;;;;9.22;88.03;100407.81;5032964;28;877;-60
2021/10/31 04:48:07;;;;;;;;;;;;;;;9.18;88.71;100396.78;5031743;28;799;-60
2021/10/31 04:50:34;;;;;;;;;;;;;;;9.16;88.78;100399.09;5032941;28;818;-60
2021/10/31 04:53:03;;;;;;;;;;;;;;;9.12;89.15;100393.53;5032743;28;942;-60
2021/10/31 04:55:30;;;;;;;;;;;;;;;9.09;89.36;100394.31;5032892;28;808;-60
2021/10/31 04:57:57;;;;;;;;;;;;;;;9.09;90.02;100383.28;5015364;28;1277;-60
2021/10/31 05:00:24;;;;;;;;;;;;;;;9.11;89.56;100383.69;5032843;28;1220;-60
2021/10/31 05:02:52;;;;;;;;;;;;;;;9.13;89.54;100380.53;5033313;28;1878;-60
2021/10/31 05:05:18;;;;;;;;;;;;;;;9.17;89.55;100382.19;5032817;28;827;-60
2021/10/31 05:07:46;;;;;;;;;;;;;;;9.23;89.09;100382.63;5033291;28;835;-60
2021/10/31 05:10:13;;;;;;;;;;;;;;;9.31;88.88;100377.97;5032935;28;831;-60
2021/10/31 05:17:49;;;;;;;;;;;;;;;9.51;87.96;100375.78;5803369;22;1660;-59
2021/10/31 05:20:17;;;;;;;;;;;;;;;9.56;87.93;100372.69;5052326;28;818;-59
2021/10/31 05:22:43;;;;;;;;;;;;;;;9.63;87.40;100371.94;5052118;28;1918;-59
2021/10/31 05:25:10;;;;;;;;;;;;;;;9.70;86.89;100378.31;5052243;28;814;-59
2021/10/31 05:27:37;;;;;;;;;;;;;;;9.76;86.66;100378.75;5052225;28;845;-59
2021/10/31 05:30:05;;;;;;;;;;;;;;;9.80;86.39;100382.34;5052384;28;853;-59
2021/10/31 05:32:35;;;;;;;;;;;;;;;9.90;85.91;100381.63;5052223;28;912;-59
2021/10/31 05:35:03;;;;;;;;;;;;;;;9.95;85.62;100377.72;5051991;28;901;-59
2021/10/31 05:37:37;;;;;;;;;;;;;;;9.99;85.66;100382.06;5051901;28;870;-59
2021/10/31 05:40:05;;;;;;;;;;;;;;;10.05;85.40;100387.22;5051889;28;834;-59
2021/10/31 05:42:31;;;;;;;;;;;;;;;10.08;85.24;100392.00;5051782;28;1886;-59
2021/10/31 05:44:58;;;;;;;;;;;;;;;10.12;84.79;100385.31;5051847;28;818;-59
2021/10/31 05:47:24;;;;;;;;;;;;;;;10.16;84.43;100388.88;5051709;28;826;-59
2021/10/31 05:49:51;;;;;;;;;;;;;;;10.17;84.23;100395.19;5052039;28;849;-59
2021/10/31 05:52:19;;;;;;;;;;;;;;;10.22;84.27;100386.56;5033936;28;901;-59
2021/10/31 05:54:45;;;;;;;;;;;;;;;10.23;83.92;100401.94;5051649;28;798;-59
2021/10/31 05:57:12;;;;;;;;;;;;;;;10.29;83.78;100400.44;5051787;28;909;-60
2021/10/31 05:59:39;;;;;;;;;;;;;;;10.31;83.55;100408.34;5051836;28;849;-59
2021/10/31 06:02:09;;;;;;;;;;;;;;;10.34;83.63;100411.13;5051552;28;1881;-59
2021/10/31 06:04:35;;;;;;;;;;;;;;;10.33;83.71;100397.72;5052034;28;817;-59
2021/10/31 06:07:02;;;;;;;;;;;;;;;10.40;83.41;100406.03;5051903;28;869;-59
2021/10/31 06:09:28;;;;;;;;;;;;;;;10.44;82.86;100406.06;5051853;28;885;-60
2021/10/31 06:11:55;;;;;;;;;;;;;;;10.49;82.77;100406.47;5051374;28;1036;-59
2021/10/31 06:14:22;;;;;;;;;;;;;;;10.49;82.57;100400.16;5051676;28;898;-59
2021/10/31 06:16:48;;;;;;;;;;;;;;;10.49;82.55;100403.69;5051298;28;846;-59
2021/10/31 06:19:15;;;;;;;;;;;;;;;10.54;82.09;100403.34;5051289;28;1202;-59
2021/10/31 06:21:41;;;;;;;;;;;;;;;10.59;81.73;100408.50;5051251;28;1909;-59
2021/10/31 06:24:08;;;;;;;;;;;;;;;10.67;81.79;100408.50;5051346;28;873;-59
2021/10/31 06:26:34;;;;;;;;;;;;;;;10.74;81.85;100395.53;5051298;28;897;-59
2021/10/31 06:29:01;;;;;;;;;;;;;;;10.86;81.40;100402.69;5051319;28;854;-60
2021/10/31 06:31:27;;;;;;;;;;;;;;;11.00;80.66;100408.25;5051381;28;822;-59
2021/10/31 06:33:54;;;;;;;;;;;;;;;11.14;80.43;100401.97;5051268;28;874;-60
2021/10/31 06:36:21;;;;;;;;;;;;;;;11.26;79.59;100403.56;5051316;28;901;-60
2021/10/31 06:38:47;;;;;;;;;;;;;;;11.35;79.20;100406.75;5033280;28;1145;-60
2021/10/31 06:41:14;;;;;;;;;;;;;;;11.39;79.04;100398.44;5051259;28;904;-60
2021/10/31 06:43:41;;;;;;;;;;;;;;;11.40;79.15;100397.28;5053951;28;1886;-60
2021/10/31 06:46:07;;;;;;;;;;;;;;;11.37;79.38;100396.09;5055114;28;806;-59
2021/10/31 06:48:34;;;;;;;;;;;;;;;11.41;79.07;100393.31;5055228;28;898;-60
2021/10/31 06:51:01;;;;;;;;;;;;;;;11.49;78.63;100392.13;5037161;28;1192;-59
2021/10/31 06:53:27;;;;;;;;;;;;;;;11.58;78.33;100397.28;5055010;28;881;-60
2021/10/31 06:55:53;;;;;;;;;;;;;;;11.81;77.60;100397.66;5055008;28;814;-60
2021/10/31 06:58:20;;;;;;;;;;;;;;;11.94;76.97;100403.63;5054946;28;826;-60
2021/10/31 07:00:46;;;;;;;;;;;;;;;12.04;76.43;100402.03;5054851;28;871;-60
2021/10/31 07:03:13;;;;;;;;;;;;;;;12.09;76.52;100398.06;5054714;28;1945;-60
2021/10/31 07:05:40;;;;;;;;;;;;;;;12.08;76.24;100396.47;5055074;28;830;-60
2021/10/31 07:08:06;;;;;;;;;;;;;;;12.09;76.41;100396.09;5054777;28;847;-60
2021/10/31 07:10:33;;;;;;;;;;;;;;;12.04;76.52;100383.44;5054783;28;818;-60
2021/10/31 07:13:00;;;;;;;;;;;;;;;12.00;76.65;100390.19;5054739;28;884;-59
2021/10/31 07:15:27;;;;;;;;;;;;;;;11.84;76.95;100382.22;5054522;28;885;-60
2021/10/31 07:17:56;;;;;;;;;;;;;;;11.75;77.66;100385.41;5054589;28;1212;-60
2021/10/31 07:20:23;;;;;;;;;;;;;;;11.63;77.87;100394.91;5036626;28;1276;-59
2021/10/31 07:22:52;;;;;;;;;;;;;;;11.53;78.20;100387.38;5054407;28;1926;-60
2021/10/31 07:25:20;;;;;;;;;;;;;;;11.43;78.89;100405.56;5054557;28;874;-59
2021/10/31 07:27:47;;;;;;;;;;;;;;;11.35;79.27;100397.66;5054316;28;876;-60
2021/10/31 07:30:14;;;;;;;;;;;;;;;11.30;79.38;100403.56;5054471;28;872;-60
2021/10/31 07:32:41;;;;;;;;;;;;;;;11.18;80.24;100405.53;5054210;28;843;-60
2021/10/31 07:35:07;;;;;;;;;;;;;;;11.06;81.36;100405.91;5054339;28;869;-59
2021/10/31 07:37:34;;;;;;;;;;;;;;;10.92;82.15;100411.38;5054153;28;854;-60
2021/10/31 07:40:05;;;;;;;;;;;;;;;10.78;83.21;100409.38;5054240;28;853;-59
2021/10/31 07:42:31;;;;;;;;;;;;;;;10.69;83.64;100409.72;5054080;28;1975;-60
2021/10/31 07:44:58;;;;;;;;;;;;;;;10.58;84.53;100414.41;5054063;28;810;-60
2021/10/31 07:47:25;;;;;;;;;;;;;;;10.60;85.01;100415.63;5054108;28;818;-60
2021/10/31 07:49:52;;;;;;;;;;;;;;;10.71;85.70;100412.91;5053924;28;834;-59
2021/10/31 07:52:19;;;;;;;;;;;;;;;10.79;85.16;100408.16;5054023;28;854;-60
2021/10/31 07:54:46;;;;;;;;;;;;;;;10.77;85.13;100403.03;5034657;28;1342;-59
2021/10/31 07:57:12;;;;;;;;;;;;;;;10.78;85.34;100385.25;5053849;28;865;-59
2021/10/31 07:59:39;;;;;;;;;;;;;;;10.71;85.97;100392.72;5053832;28;862;-60
2021/10/31 08:02:06;;;;;;;;;;;;;;;10.68;85.79;100396.28;5053958;28;1947;-60
2021/10/31 08:04:33;;;;;;;;;;;;;;;10.67;86.18;100389.16;5053698;28;803;-60
2021/10/31 08:07:00;;;;;;;;;;;;;;;10.72;86.20;100386.03;5053811;28;802;-60
2021/10/31 08:09:26;;;;;;;;;;;;;;;10.71;85.14;100378.91;5053635;28;882;-59
2021/10/31 08:11:53;;;;;;;;;;;;;;;10.74;85.13;100387.22;5053604;28;822;-59
2021/10/31 08:14:20;;;;;;;;;;;;;;;10.78;84.50;100385.25;5053488;28;826;-60
2021/10/31 08:16:46;;;;;;;;;;;;;;;10.91;84.64;100379.38;5053454;28;873;-60
2021/10/31 08:19:13;;;;;;;;;;;;;;;11.03;84.31;100379.00;5053385;28;1205;-60
2021/10/31 08:21:39;;;;;;;;;;;;;;;11.07;83.29;100379.81;5053428;28;846;-60
2021/10/31 08:24:06;;;;;;;;;;;;;;;11.19;83.50;100384.19;5053253;28;1969;-60
2021/10/31 08:26:34;;;;;;;;;;;;;;;11.30;82.89;100387.75;5053284;28;943;-59
2021/10/31 08:29:02;;;;;;;;;;;;;;;11.29;82.21;100388.97;5053281;28;811;-60
2021/10/31 08:31:32;;;;;;;;;;;;;;;11.32;82.34;100390.13;5035308;28;846;-60
2021/10/31 08:34:00;;;;;;;;;;;;;;;11.26;82.36;100392.50;5053171;28;830;-59
2021/10/31 08:36:27;;;;;;;;;;;;;;;11.10;82.29;100381.81;5053107;28;885;-60
2021/10/31 08:38:54;;;;;;;;;;;;;;;10.94;82.78;100379.38;5053075;28;818;-60
2021/10/31 08:41:21;;;;;;;;;;;;;;;10.91;83.76;100384.91;5035209;28;1205;-60
2021/10/31 08:43:48;;;;;;;;;;;;;;;10.88;83.95;100388.44;5052708;28;1882;-60
2021/10/31 08:46:15;;;;;;;;;;;;;;;10.95;83.61;100371.91;5052966;28;810;-59
2021/10/31 08:48:42;;;;;;;;;;;;;;;11.00;83.14;100368.72;5052945;28;841;-59
2021/10/31 08:51:10;;;;;;;;;;;;;;;11.17;83.30;100367.19;5053012;28;866;-59
2021/10/31 08:53:37;;;;;;;;;;;;;;;11.32;82.92;100368.78;5052875;28;870;-60
2021/10/31 08:56:06;;;;;;;;;;;;;;;11.40;81.84;100359.31;5052737;28;811;-59
2021/10/31 08:58:33;;;;;;;;;;;;;;;11.56;81.44;100366.44;5053500;28;794;-59
2021/10/31 09:00:58;;;;;;;;;;;;;;;11.37;81.70;100357.34;5052898;28;850;-59
2021/10/31 09:03:25;;;;;;;;;;;;;;;11.02;82.89;100364.38;5034703;28;1906;-60
2021/10/31 09:05:51;;;;;;;;;;;;;;;10.78;84.43;100360.38;5052413;28;876;-60
2021/10/31 09:08:18;;;;;;;;;;;;;;;10.68;84.87;100363.91;5052554;28;873;-60
2021/10/31 09:10:45;;;;;;;;;;;;;;;10.58;85.55;100357.16;5052492;28;889;-60
2021/10/31 09:13:12;;;;;;;;;;;;;;;10.57;85.95;100363.84;5052350;28;930;-60
2021/10/31 09:15:38;;;;;;;;;;;;;;;10.68;85.59;100355.59;5052375;28;815;-60
2021/10/31 09:18:06;;;;;;;;;;;;;;;10.80;84.45;100360.78;5052178;28;1207;-60
2021/10/31 09:20:34;;;;;;;;;;;;;;;10.91;83.30;100358.03;5052304;28;888;-60
2021/10/31 09:23:01;;;;;;;;;;;;;;;10.96;83.38;100341.06;5034262;28;1906;-59
2021/10/31 09:25:28;;;;;;;;;;;;;;;10.95;83.49;100342.25;5034229;28;2483;-59
2021/10/31 09:27:55;;;;;;;;;;;;;;;10.90;83.55;100347.38;5052215;28;862;-59
2021/10/31 09:30:25;;;;;;;;;;;;;;;10.83;83.45;100337.88;5052021;28;826;-60
2021/10/31 09:32:52;;;;;;;;;;;;;;;10.76;83.75;100343.38;5052311;28;873;-59
2021/10/31 09:35:21;;;;;;;;;;;;;;;10.70;83.80;100344.16;5051946;28;966;-60
2021/10/31 09:37:52;;;;;;;;;;;;;;;10.69;84.12;100342.56;5052011;28;790;-59
2021/10/31 09:40:20;;;;;;;;;;;;;;;10.67;84.37;100344.94;5052092;28;900;-59
2021/10/31 09:42:45;;;;;;;;;;;;;;;10.63;84.08;100345.72;5051591;28;1945;-60
2021/10/31 09:45:14;;;;;;;;;;;;;;;10.58;84.29;100348.88;5051780;28;1136;-59
2021/10/31 09:47:43;;;;;;;;;;;;;;;10.60;84.81;100345.69;5051822;28;803;-60
2021/10/31 09:50:10;;;;;;;;;;;;;;;10.66;84.79;100337.81;5051841;28;830;-60
2021/10/31 09:52:36;;;;;;;;;;;;;;;10.63;84.19;100340.19;5051697;28;818;-60
2021/10/31 09:55:04;;;;;;;;;;;;;;;10.67;84.23;100331.91;5051929;28;826;-59
2021/10/31 09:57:32;;;;;;;;;;;;;;;10.63;84.57;100337.44;5051649;28;861;-60
2021/10/31 10:00:01;;;;;;;;;;;;;;;10.63;85.37;100328.34;5051567;28;828;-60
2021/10/31 10:02:48;;;;;;;;;;;;;;;10.58;85.23;100315.69;5051425;28;2000;-59
2021/10/31 10:05:22;;;;;;;;;;;;;;;10.59;85.49;100314.50;5033691;28;2154;-60
2021/10/31 10:08:09;;;;;;;;;;;;;;;10.60;85.56;100309.75;5051557;28;869;-60
2021/10/31 10:10:39;;;;;;;;;;;;;;;10.68;85.77;100310.59;5037327;28;1931;-59
2021/10/31 10:13:24;;;;;;;;;;;;;;;10.68;85.09;100311.38;5033792;28;843;-59
2021/10/31 10:15:51;;;;;;;;;;;;;;;10.67;84.67;100301.50;5051463;28;881;-59
2021/10/31 10:18:31;;;;;;;;;;;;;;;10.67;84.12;100307.03;5050515;28;1190;-60
2021/10/31 10:21:34;;;;;;;;;;;;;;;10.73;83.95;100296.38;5051459;28;811;-60
2021/10/31 10:24:02;;;;;;;;;;;;;;;10.82;83.51;100292.06;4970519;28;1914;-60
2021/10/31 10:26:36;;;;;;;;;;;;;;;10.90;83.72;100287.31;4970918;28;1031;-60
2021/10/31 10:29:02;;;;;;;;;;;;;;;10.94;83.33;100288.09;4970689;28;827;-59
2021/10/31 10:31:29;;;;;;;;;;;;;;;10.95;83.08;100288.91;4970715;28;925;-60
2021/10/31 10:33:55;;;;;;;;;;;;;;;10.99;82.88;100295.25;4970556;28;906;-60
2021/10/31 10:36:24;;;;;;;;;;;;;;;10.98;82.41;100279.81;4970736;28;843;-59
2021/10/31 10:39:01;;;;;;;;;;;;;;;11.08;82.53;100286.56;4970538;28;1134;-60
2021/10/31 10:41:56;;;;;;;;;;;;;;;11.14;81.71;100274.72;4970677;28;815;-60
2021/10/31 10:44:33;;;;;;;;;;;;;;;11.22;80.34;100270.75;4958388;28;1496;-60
2021/10/31 10:47:08;;;;;;;;;;;;;;;11.28;79.84;100273.13;4969995;28;816;-50
2021/10/31 10:49:38;;;;;;;;;;;;;;;11.36;79.70;100272.72;4970356;28;922;-60
2021/10/31 10:52:06;;;;;;;;;;;;;;;11.44;79.51;100259.69;4970422;28;944;-60
2021/10/31 10:54:33;;;;;;;;;;;;;;;11.40;79.60;100264.41;4969044;28;879;-60
2021/10/31 10:57:08;;;;;;;;;;;;;;;11.33;79.48;100259.69;4977935;28;942;-60
2021/10/31 10:59:35;;;;;;;;;;;;;;;11.24;79.97;100260.09;5051011;28;897;-60
2021/10/31 11:02:13;;;;;;;;;;;;;;;11.18;80.32;100263.63;5050917;28;1886;-60
2021/10/31 11:04:43;;;;;;;;;;;;;;;11.21;80.59;100260.09;5050730;28;972;-60
2021/10/31 11:07:10;;;;;;;;;;;;;;;11.31;80.31;100264.00;5051004;28;822;-60
2021/10/31 11:09:54;;;;;;;;;;;;;;;11.36;80.31;100260.88;5050960;28;806;-60
2021/10/31 11:12:25;;;;;;;;;;;;;;;11.41;80.10;100261.28;5050895;28;901;-60
2021/10/31 11:14:53;;;;;;;;;;;;;;;11.44;80.27;100260.47;5050998;28;795;-60
2021/10/31 11:17:20;;;;;;;;;;;;;;;11.37;80.47;100246.63;5050820;28;944;-60
2021/10/31 11:19:48;;;;;;;;;;;;;;;11.22;81.17;100259.69;5050758;28;1474;-60
2021/10/31 11:22:15;;;;;;;;;;;;;;;11.21;81.21;100247.03;5050711;28;1906;-60
2021/10/31 11:24:44;;;;;;;;;;;;;;;11.28;81.38;100259.28;5050849;28;803;-60
2021/10/31 11:27:11;;;;;;;;;;;;;;;11.33;80.57;100250.56;5050809;28;924;-60
2021/10/31 11:29:38;;;;;;;;;;;;;;;11.31;81.03;100248.22;5053373;28;869;-60
2021/10/31 11:32:05;;;;;;;;;;;;;;;11.20;81.08;100252.94;5054340;28;866;-60
2021/10/31 11:34:32;;;;;;;;;;;;;;;11.09;81.99;100236.34;5054342;28;810;-61
2021/10/31 11:36:59;;;;;;;;;;;;;;;11.07;81.83;100241.50;5054258;28;826;-60
2021/10/31 11:39:25;;;;;;;;;;;;;;;11.15;80.84;100239.53;5054248;28;822;-60
2021/10/31 11:41:55;;;;;;;;;;;;;;;11.29;80.51;100245.06;5054389;28;1951;-61
2021/10/31 11:44:25;;;;;;;;;;;;;;;11.43;79.83;100242.25;5054071;28;865;-60
2021/10/31 11:46:52;;;;;;;;;;;;;;;11.55;79.65;100243.06;5054506;28;810;-60
2021/10/31 11:49:20;;;;;;;;;;;;;;;11.55;79.28;100241.06;5053994;28;831;-60
2021/10/31 11:51:53;;;;;;;;;;;;;;;11.48;79.68;100243.03;5054538;28;782;-60
2021/10/31 11:54:21;;;;;;;;;;;;;;;11.32;80.03;100232.41;5053991;28;807;-60
2021/10/31 11:56:51;;;;;;;;;;;;;;;11.31;80.03;100228.84;5053973;28;878;-60
2021/10/31 11:59:19;;;;;;;;;;;;;;;11.33;79.99;100225.66;5053882;28;877;-60
2021/10/31 12:01:53;;;;;;;;;;;;;;;11.35;79.87;100226.06;5053819;28;823;-60
2021/10/31 12:04:22;;;;;;;;;;;;;;;11.43;79.16;100220.13;5053786;28;826;-60
2021/10/31 12:06:49;;;;;;;;;;;;;;;11.37;79.03;100213.44;5053569;28;844;-60
2021/10/31 12:09:22;;;;;;;;;;;;;;;11.32;79.75;100208.28;5053992;28;877;-60
2021/10/31 12:11:51;;;;;;;;;;;;;;;11.35;79.35;100207.50;5053586;28;830;-60
2021/10/31 12:14:37;;;;;;;;;;;;;;;11.43;78.99;100202.72;5053631;28;795;-60
2021/10/31 12:17:04;;;;;;;;;;;;;;;11.51;78.81;100190.44;5053310;28;1212;-60
2021/10/31 12:19:37;;;;;;;;;;;;;;;11.41;78.78;100199.56;5053239;28;1439;-60
2021/10/31 12:22:20;;;;;;;;;;;;;;;11.41;78.61;100197.59;5053626;28;1909;-60
2021/10/31 12:24:48;;;;;;;;;;;;;;;11.40;78.97;100198.78;5053428;28;885;-60
2021/10/31 12:27:22;;;;;;;;;;;;;;;11.50;78.39;100190.84;5053332;28;881;-60
2021/10/31 12:29:52;;;;;;;;;;;;;;;11.41;78.14;100194.84;5053292;28;850;-60
2021/10/31 12:32:20;;;;;;;;;;;;;;;11.43;78.48;100203.50;5051862;28;922;-60
2021/10/31 12:34:48;;;;;;;;;;;;;;;11.39;78.48;100202.75;5053181;28;846;-60
2021/10/31 12:37:24;;;;;;;;;;;;;;;11.34;78.19;100192.06;5053267;28;905;-60
2021/10/31 12:39:50;;;;;;;;;;;;;;;11.31;78.72;100195.66;5052371;28;807;-60
2021/10/31 12:42:18;;;;;;;;;;;;;;;11.28;78.86;100193.66;5052952;28;1946;-60
2021/10/31 12:44:49;;;;;;;;;;;;;;;11.24;78.30;100201.16;5053092;28;822;-60
2021/10/31 12:47:27;;;;;;;;;;;;;;;11.18;78.84;100197.22;5035014;28;1421;-60
2021/10/31 12:50:12;;;;;;;;;;;;;;;11.19;78.53;100198.81;5053146;28;845;-60
2021/10/31 12:52:43;;;;;;;;;;;;;;;11.14;78.81;100205.53;5052826;28;830;-60
2021/10/31 12:55:14;;;;;;;;;;;;;;;11.09;78.45;100197.63;5053202;28;814;-60
2021/10/31 12:57:50;;;;;;;;;;;;;;;11.09;78.88;100203.16;5052847;28;861;-60
2021/10/31 13:00:16;;;;;;;;;;;;;;;11.01;78.68;100193.31;5052734;28;807;-60
2021/10/31 13:02:50;;;;;;;;;;;;;;;10.95;78.83;100198.44;5052652;28;1953;-60
2021/10/31 13:05:27;;;;;;;;;;;;;;;10.95;78.91;100198.44;5053287;28;862;-60
2021/10/31 13:07:55;;;;;;;;;;;;;;;10.92;78.88;100201.97;5052641;28;815;-60
2021/10/31 13:10:23;;;;;;;;;;;;;;;10.91;79.08;100194.09;5052517;28;818;-60
2021/10/31 13:12:50;;;;;;;;;;;;;;;10.93;79.12;100191.72;5052493;28;806;-60